2018-09-21 - 05:57:00

SR: 0514 - SS: 1731

RWY: 25


OBSERVATION: n/a

RVR Mean 1 min: (Runway Visual Range)
A: P2000 - B: P2000 - C: P2000
RVR Mean 10 min:
A: P2000 - B: P2000 - C: P2000
WARNING: n/a
W25: 160-220(190-16kt) 07kt-29kt
W07: 360-360(200-08kt) 01kt-17kt
OTHER: n/a

QFE: (tats�chlicher Luftdruck) 996.5 hPa = 29.41 inHg
QNH:(Luftdruck auf Meeresh�he) 1002.2 hPa = 29.58 inHg
Temperatur: 22.1 �C
Dew point(Taupunkt): 11.8 �C

METAR:  00060 SADL31 EDDG 210550 METAR EDDG 210550Z 19013KT 160V230 CAVOK 22/12 Q1002 BECMG 19015G25KT= 
METAR (aus weather.noaa.gov):
2018/09/21 05:50 EDDG 210550Z 19013KT 160V230 CAVOK 22/12 Q1002 BECMG 19015G25KT

TAF (aus weather.noaa.gov):
2018/09/21 06:27 TAF EDDG 210500Z 2106/2206 20015G25KT 9999 SCT040 BECMG 2106/2108 23020G35KT TEMPO 2108/2111 25020G45KT RA BECMG 2115/2118 24015G25KT BECMG 2118/2121 23010KT PROB30 TEMPO 2121/2203 24015G25KT SHRA BKN020TCU